Goodspring, Tennessee
Current Conditions -  °F | °C
As of 2:35 PM on Wednesday 26 Nov 2014 (Local Time) from KMRC Reporting Station
Broken Clouds Broken Clouds  
Wind Chill: 52°   Ceiling: 11000
Heat Index: 52°   Visibility: 10mi
Dew Point: 27°   Wind: 7mph
Humidity: 38%   Direction: 200°SSW
Pressure: 30.01"   Gusts: NA
Location:  35.14°N, 87.1°W
Report Text: KMRC 262035Z AUTO 20006KT 10SM SCT090 BKN110 11/M03 A3001 RMK
Loading
Personal Weather Stations






























Interactive Weather Map New forecast layout! Learn more

10-Day Weather Forecast

Advertisements
Track Severe Weather on mobile